VIAR/ATQ METAR and TAF weather

Enter ICAO airport designator
Station Type Date Time Source
VIAR METAR 2020/07/09 08:00 UTC NOAA

VIAR 090800Z VRB02KT 4000 HZ SCT030 SCT090 35/26 Q0999 NOSIG


Station Type Date Time Source
VIAR Decoded METAR 2020/07/09 08:00 UTC NOAA

Amritsar, India (VIAR) 31-38N 074-52E 234M
Jul 09, 2020 - 04:00 AM EDT / 2020.07.09 0800 UTC
Wind: Variable at 2 MPH (2 KT):0
Visibility: 2 mile(s):0
Sky conditions: partly cloudy
Weather: haze
Temperature: 95 F (35 C)
Heat index: 112.3 F (44.6 C):1
Dew Point: 78 F (26 C)
Relative Humidity: 59%
Pressure (altimeter): 29.50 in. Hg (0999 hPa)
ob: VIAR 090800Z VRB02KT 4000 HZ SCT030 SCT090 35/26 Q0999 NOSIG
cycle: 8

Station Type Date Time Source
VIAR TAF 2020/07/09 18:00 UTC NOAA

TAF VIAR 081700Z 0818/0924 07005KT 3000 HZ FEW030 SCT090
BECMG 0822/0903 15010G20KT 1500 TSRA FEW035CB BKN090
BECMG 0904/0906 14006KT 2500 HZ SCT030 BKN100
BECMG 0906/0908 27008KT 4000 HZ -RA FEW035 SCT090
BECMG 0909/0915 1500 TSRA FEW040CB BKN090
BECMG 0920/0922 VRB02KT 2500 HZ BR SCT035 SCT100

Example: see airport list